createdAt,value
2018-02-07T00:01:07.545Z,25.83
2018-02-07T00:03:39.221Z,22.23
2018-02-07T00:06:10.642Z,24.57
2018-02-07T00:08:41.499Z,23.87
2018-02-07T00:11:13.238Z,28.53
2018-02-07T00:13:44.794Z,20.17
2018-02-07T00:16:15.667Z,30.17
2018-02-07T00:18:46.468Z,22.63
2018-02-07T00:21:17.441Z,26.10
2018-02-07T00:23:48.350Z,18.83
2018-02-07T00:26:19.382Z,24.77
2018-02-07T00:28:50.173Z,20.80
2018-02-07T00:31:21.055Z,23.93
2018-02-07T00:33:51.967Z,23.70
2018-02-07T00:36:23.764Z,23.23
2018-02-07T00:38:54.630Z,27.53
2018-02-07T00:41:25.530Z,28.70
2018-02-07T00:43:56.347Z,23.43
2018-02-07T00:46:27.365Z,20.00
2018-02-07T00:48:58.239Z,27.50
2018-02-07T00:51:29.129Z,23.90
2018-02-07T00:54:00.141Z,22.37
2018-02-07T00:56:32.528Z,19.57
2018-02-07T00:59:03.285Z,23.80
2018-02-07T01:01:35.065Z,24.47
2018-02-07T01:04:08.341Z,16.23
2018-02-07T01:06:39.189Z,23.40
2018-02-07T01:09:10.098Z,24.43
2018-02-07T01:11:42.038Z,19.57
2018-02-07T01:14:14.613Z,21.13
2018-02-07T01:16:46.059Z,26.47
2018-02-07T01:19:17.834Z,19.30
2018-02-07T01:21:49.218Z,21.37
2018-02-07T01:24:20.061Z,17.80
2018-02-07T01:26:51.479Z,24.97
2018-02-07T01:29:22.298Z,19.77
2018-02-07T01:31:54.873Z,23.43
2018-02-07T01:34:26.934Z,28.10
2018-02-07T01:36:58.801Z,22.00
2018-02-07T01:39:30.487Z,28.30
2018-02-07T01:42:02.109Z,19.47
2018-02-07T01:44:33.856Z,20.30
2018-02-07T01:47:05.494Z,24.77
2018-02-07T01:49:36.073Z,19.90
2018-02-07T01:52:06.706Z,25.43
2018-02-07T01:54:37.390Z,23.20
2018-02-07T01:57:08.246Z,20.60
2018-02-07T01:59:40.278Z,25.90
2018-02-07T02:02:10.950Z,33.07
2018-02-07T02:04:42.609Z,17.90
2018-02-07T02:07:14.561Z,19.00
2018-02-07T02:09:46.237Z,28.43
2018-02-07T02:12:17.009Z,25.67
2018-02-07T02:14:47.724Z,20.80
2018-02-07T02:17:18.450Z,23.13
2018-02-07T02:19:49.030Z,30.50
2018-02-07T02:22:20.535Z,29.93
2018-02-07T02:24:51.430Z,23.67
2018-02-07T02:27:23.111Z,26.77
2018-02-07T02:29:55.546Z,25.53
2018-02-07T02:32:26.254Z,23.90
2018-02-07T02:34:57.141Z,20.63
2018-02-07T02:37:28.829Z,23.97
2018-02-07T02:39:59.834Z,29.20
2018-02-07T02:42:31.387Z,21.60
2018-02-07T02:45:04.241Z,23.23
2018-02-07T02:47:35.154Z,26.37
2018-02-07T02:50:07.002Z,35.93
2018-02-07T02:52:38.270Z,23.37
2018-02-07T02:55:09.798Z,24.47
2018-02-07T02:57:40.707Z,24.57
2018-02-07T03:00:12.365Z,20.10
2018-02-07T03:02:43.929Z,25.13
2018-02-07T03:05:14.592Z,31.23
2018-02-07T03:07:45.558Z,23.73
2018-02-07T03:10:16.963Z,23.10
2018-02-07T03:12:48.726Z,30.90
2018-02-07T03:15:19.517Z,24.43
2018-02-07T03:17:51.945Z,23.93
2018-02-07T03:20:23.123Z,21.70
2018-02-07T03:22:54.421Z,33.23
2018-02-07T03:25:25.216Z,25.63
2018-02-07T03:27:56.026Z,27.43
2018-02-07T03:30:26.882Z,27.07
2018-02-07T03:32:59.271Z,29.70
2018-02-07T03:35:30.139Z,22.63
2018-02-07T03:38:01.037Z,21.20
2018-02-07T03:40:32.581Z,26.83
2018-02-07T03:43:08.893Z,25.47
2018-02-07T03:45:40.229Z,24.27
2018-02-07T03:48:14.467Z,21.33
2018-02-07T03:50:46.268Z,21.53
2018-02-07T03:53:17.098Z,24.50
2018-02-07T03:55:48.127Z,26.77
2018-02-07T03:58:19.630Z,23.80
2018-02-07T04:00:51.801Z,25.83
2018-02-07T04:03:22.562Z,20.37
2018-02-07T04:05:53.367Z,23.17
2018-02-07T04:08:25.042Z,23.80
2018-02-07T04:10:56.585Z,22.77
2018-02-07T04:13:27.550Z,19.37
2018-02-07T04:15:58.297Z,21.53
2018-02-07T04:18:29.386Z,24.03
2018-02-07T04:21:00.815Z,23.10
2018-02-07T04:23:33.233Z,18.97
2018-02-07T04:26:03.789Z,22.77
2018-02-07T04:28:34.718Z,21.43
2018-02-07T04:31:05.644Z,18.17
2018-02-07T04:33:36.529Z,18.70
2018-02-07T04:36:07.418Z,20.70
2018-02-07T04:38:38.030Z,19.30
2018-02-07T04:41:09.666Z,26.60
2018-02-07T04:43:41.342Z,18.43
2018-02-07T04:46:13.270Z,19.73
2018-02-07T04:48:44.257Z,18.93
2018-02-07T04:51:15.102Z,19.33
2018-02-07T04:53:47.729Z,18.50
2018-02-07T04:56:18.673Z,17.97
2018-02-07T04:58:49.497Z,19.07
2018-02-07T05:01:20.241Z,19.37
2018-02-07T05:03:50.966Z,18.40
2018-02-07T05:06:22.532Z,19.60
2018-02-07T05:08:53.339Z,18.37
2018-02-07T05:11:24.009Z,24.63
2018-02-07T05:13:55.555Z,20.70
2018-02-07T05:16:27.150Z,20.13
2018-02-07T05:18:57.958Z,19.83
2018-02-07T05:21:29.475Z,17.67
2018-02-07T05:24:00.248Z,19.23
2018-02-07T05:26:31.934Z,20.00
2018-02-07T05:29:02.761Z,19.03
2018-02-07T05:31:34.573Z,21.90
2018-02-07T05:34:10.628Z,16.93
2018-02-07T05:36:41.370Z,24.33
2018-02-07T05:39:12.654Z,19.50
2018-02-07T05:41:43.438Z,17.70
2018-02-07T05:44:14.907Z,16.03
2018-02-07T05:46:45.857Z,19.70
2018-02-07T05:49:18.103Z,17.23
2018-02-07T05:51:48.662Z,18.20
2018-02-07T05:54:20.270Z,15.40
2018-02-07T05:56:50.971Z,21.13
2018-02-07T05:59:21.877Z,20.10
2018-02-07T06:01:53.836Z,19.00
2018-02-07T06:04:25.877Z,20.77
2018-02-07T06:06:56.600Z,16.20
2018-02-07T06:09:27.274Z,15.70
2018-02-07T06:11:59.546Z,16.13
2018-02-07T06:14:32.814Z,21.43
2018-02-07T06:17:03.747Z,18.73
2018-02-07T06:19:34.489Z,17.10
2018-02-07T06:22:05.306Z,20.37
2018-02-07T06:24:35.967Z,16.67
2018-02-07T06:27:07.628Z,17.87
2018-02-07T06:29:39.412Z,18.23
2018-02-07T06:32:10.274Z,15.77
2018-02-07T06:34:41.165Z,14.63
2018-02-07T06:37:13.330Z,16.80
2018-02-07T06:39:44.581Z,12.87
2018-02-07T06:42:15.926Z,16.37
2018-02-07T06:44:47.435Z,13.83
2018-02-07T06:47:18.177Z,17.30
2018-02-07T06:49:49.007Z,19.33
2018-02-07T06:52:19.966Z,15.47
2018-02-07T06:54:50.911Z,14.90
2018-02-07T06:57:21.739Z,15.40
2018-02-07T06:59:52.441Z,14.60
2018-02-07T07:02:23.406Z,16.63
2018-02-07T07:04:54.232Z,13.80
2018-02-07T07:07:24.762Z,17.00
2018-02-07T07:09:55.630Z,14.60
2018-02-07T07:12:27.372Z,16.33
2018-02-07T07:14:58.305Z,15.50
2018-02-07T07:17:29.334Z,13.77
2018-02-07T07:20:00.172Z,13.80
2018-02-07T07:22:31.073Z,16.00
2018-02-07T07:25:01.666Z,14.97
2018-02-07T07:27:32.499Z,14.47
2018-02-07T07:30:04.364Z,12.80
2018-02-07T07:32:35.963Z,13.70
2018-02-07T07:35:06.935Z,17.80
2018-02-07T07:37:37.746Z,14.90
2018-02-07T07:40:08.603Z,14.80
2018-02-07T07:42:39.416Z,18.37
2018-02-07T07:45:10.307Z,18.83
2018-02-07T07:47:41.927Z,18.10
2018-02-07T07:50:12.879Z,15.97
2018-02-07T07:52:43.379Z,15.20
2018-02-07T07:55:14.339Z,16.60
2018-02-07T07:57:45.192Z,15.57
2018-02-07T08:00:16.018Z,19.97
2018-02-07T08:02:47.423Z,17.93
2018-02-07T08:05:18.622Z,15.13
2018-02-07T08:07:50.495Z,15.40
2018-02-07T08:10:22.195Z,16.00
2018-02-07T08:12:53.773Z,20.27
2018-02-07T08:15:24.459Z,21.50
2018-02-07T08:17:55.994Z,18.50
2018-02-07T08:20:27.446Z,21.07
2018-02-07T08:22:59.381Z,15.40
2018-02-07T08:25:31.127Z,17.40
2018-02-07T08:28:01.623Z,15.53
2018-02-07T08:30:32.114Z,14.40
2018-02-07T08:33:03.635Z,19.30
2018-02-07T08:35:34.097Z,19.37
2018-02-07T08:38:05.039Z,16.03
2018-02-07T08:40:36.680Z,14.23
2018-02-07T08:43:07.562Z,15.40
2018-02-07T08:45:39.576Z,19.83
2018-02-07T08:48:10.691Z,15.40
2018-02-07T08:50:41.462Z,13.77
2018-02-07T08:53:13.127Z,14.97
2018-02-07T08:55:44.750Z,16.43
2018-02-07T08:58:15.842Z,14.33
2018-02-07T09:00:47.631Z,20.47
2018-02-07T09:03:18.554Z,16.63
2018-02-07T09:05:49.859Z,17.67
2018-02-07T09:08:21.507Z,17.37
2018-02-07T09:10:52.618Z,16.27
2018-02-07T09:13:23.586Z,22.47
2018-02-07T09:15:54.233Z,20.57
2018-02-07T09:18:26.646Z,19.80
2018-02-07T09:20:57.533Z,14.17
2018-02-07T09:23:28.321Z,17.40
2018-02-07T09:25:59.303Z,16.10
2018-02-07T09:28:30.187Z,20.23
2018-02-07T09:31:01.285Z,18.20
2018-02-07T09:33:31.986Z,19.27
2018-02-07T09:36:03.463Z,16.87
2018-02-07T09:38:34.454Z,23.53
2018-02-07T09:41:05.148Z,16.47
2018-02-07T09:43:36.911Z,19.77
2018-02-07T09:46:08.666Z,16.47
2018-02-07T09:48:40.246Z,15.17
2018-02-07T09:51:11.160Z,16.50
2018-02-07T09:53:42.918Z,17.40
2018-02-07T09:56:14.537Z,24.07
2018-02-07T09:58:46.709Z,14.10
2018-02-07T10:01:17.565Z,14.70
2018-02-07T10:03:48.310Z,13.80
2018-02-07T10:06:20.147Z,19.53
2018-02-07T10:08:51.006Z,16.30
2018-02-07T10:11:22.498Z,16.27
2018-02-07T10:13:53.403Z,16.30
2018-02-07T10:16:24.962Z,16.80
2018-02-07T10:18:57.293Z,18.10
2018-02-07T10:21:28.273Z,17.27
2018-02-07T10:23:59.609Z,18.03
2018-02-07T10:26:31.138Z,17.33
2018-02-07T10:29:01.876Z,15.63
2018-02-07T10:31:32.806Z,17.37
2018-02-07T10:34:03.623Z,17.30
2018-02-07T10:36:34.490Z,16.67
2018-02-07T10:39:05.381Z,24.10
2018-02-07T10:41:36.247Z,20.07
2018-02-07T10:44:07.017Z,18.23
2018-02-07T10:46:38.635Z,15.23
2018-02-07T10:49:09.490Z,16.50
2018-02-07T10:51:40.329Z,14.50
2018-02-07T10:54:11.166Z,16.87
2018-02-07T10:56:41.682Z,14.70
2018-02-07T10:59:12.492Z,19.27
2018-02-07T11:01:43.204Z,19.10
2018-02-07T11:04:14.211Z,17.37
2018-02-07T11:06:44.954Z,24.70
2018-02-07T11:09:16.627Z,17.97
2018-02-07T11:11:47.521Z,19.80
2018-02-07T11:14:18.290Z,20.87
2018-02-07T11:16:49.827Z,16.07
2018-02-07T11:19:21.381Z,20.50
2018-02-07T11:21:52.835Z,17.77
2018-02-07T11:24:24.593Z,17.03
2018-02-07T11:26:56.163Z,20.77
2018-02-07T11:29:27.894Z,16.83
2018-02-07T11:31:58.618Z,26.30
2018-02-07T11:34:29.089Z,18.67
2018-02-07T11:36:59.574Z,19.60
2018-02-07T11:39:30.058Z,18.00
2018-02-07T11:42:00.957Z,25.13
2018-02-07T11:44:32.694Z,18.10
2018-02-07T11:47:04.529Z,23.30
2018-02-07T11:49:35.250Z,18.00
2018-02-07T11:52:06.151Z,19.40
2018-02-07T11:54:37.781Z,18.37
2018-02-07T11:57:08.666Z,20.17
2018-02-07T11:59:39.701Z,16.73
2018-02-07T12:02:10.599Z,16.77
2018-02-07T12:04:41.542Z,12.67
2018-02-07T12:07:13.421Z,16.20
2018-02-07T12:09:45.200Z,13.37
2018-02-07T12:12:16.671Z,17.40
2018-02-07T12:14:47.409Z,15.27
2018-02-07T12:17:19.326Z,17.67
2018-02-07T12:19:52.538Z,24.47
2018-02-07T12:22:23.430Z,14.43
2018-02-07T12:24:54.215Z,17.33
2018-02-07T12:27:25.464Z,18.93
2018-02-07T12:29:56.788Z,15.10
2018-02-07T12:32:28.525Z,17.33
2018-02-07T12:35:00.381Z,17.67
2018-02-07T12:37:31.355Z,15.00
2018-02-07T12:40:02.174Z,14.97
2018-02-07T12:42:33.866Z,17.23
2018-02-07T12:45:05.175Z,15.50
2018-02-07T12:47:36.899Z,18.17
2018-02-07T12:50:07.786Z,24.73
2018-02-07T12:52:38.771Z,25.70
2018-02-07T12:55:09.774Z,15.30
2018-02-07T12:57:41.606Z,15.83
2018-02-07T13:00:13.289Z,18.60
2018-02-07T13:02:44.823Z,18.63
2018-02-07T13:05:16.586Z,15.57
2018-02-07T13:07:48.146Z,16.13
2018-02-07T13:10:19.085Z,16.60
2018-02-07T13:12:50.182Z,13.67
2018-02-07T13:15:21.603Z,15.70
2018-02-07T13:17:52.575Z,15.30
2018-02-07T13:20:23.546Z,13.23
2018-02-07T13:22:55.474Z,16.03
2018-02-07T13:25:27.237Z,16.90
2018-02-07T13:27:58.940Z,19.40
2018-02-07T13:30:30.321Z,16.97
2018-02-07T13:33:01.174Z,13.10
2018-02-07T13:35:32.409Z,17.53
2018-02-07T13:38:03.788Z,19.43
2018-02-07T13:40:34.805Z,15.60
2018-02-07T13:43:05.930Z,15.77
2018-02-07T13:45:36.787Z,16.20
2018-02-07T13:48:08.131Z,12.70
2018-02-07T13:50:40.054Z,17.50
2018-02-07T13:53:12.020Z,15.70
2018-02-07T13:55:44.886Z,13.70
2018-02-07T13:58:16.320Z,16.03
2018-02-07T14:00:54.971Z,19.53
2018-02-07T14:03:26.122Z,19.17
2018-02-07T14:05:57.466Z,15.87
2018-02-07T14:08:28.619Z,21.03
2018-02-07T14:10:59.922Z,19.03
2018-02-07T14:13:32.864Z,18.23
2018-02-07T14:16:04.277Z,17.20
2018-02-07T14:18:36.854Z,20.63
2018-02-07T14:21:08.339Z,18.83
2018-02-07T14:23:39.502Z,19.50
2018-02-07T14:26:10.738Z,18.07
2018-02-07T14:28:42.058Z,19.93
2018-02-07T14:31:13.518Z,25.70
2018-02-07T14:33:44.878Z,25.73
2018-02-07T14:36:16.186Z,20.00
2018-02-07T14:38:47.353Z,23.37
2018-02-07T14:41:18.577Z,20.10
2018-02-07T14:43:50.010Z,21.93
2018-02-07T14:46:21.955Z,22.80
2018-02-07T14:48:53.056Z,24.57
2018-02-07T14:51:24.185Z,22.90
2018-02-07T14:53:56.027Z,26.87
2018-02-07T14:56:27.994Z,23.90
2018-02-07T14:58:59.915Z,24.30
2018-02-07T15:01:30.914Z,30.90
2018-02-07T15:04:03.039Z,22.10
2018-02-07T15:06:34.410Z,23.40
2018-02-07T15:09:06.777Z,28.53
2018-02-07T15:11:38.796Z,23.60
2018-02-07T15:14:10.158Z,28.13
2018-02-07T15:16:41.432Z,25.20
2018-02-07T15:19:14.286Z,24.77
2018-02-07T15:21:45.378Z,29.47
2018-02-07T15:24:16.557Z,27.07
2018-02-07T15:26:47.825Z,32.57
2018-02-07T15:29:18.994Z,24.13
2018-02-07T15:31:50.893Z,28.00
2018-02-07T15:34:22.845Z,26.20
2018-02-07T15:36:54.370Z,27.83
2018-02-07T15:39:26.299Z,24.33
2018-02-07T15:41:57.498Z,23.70
2018-02-07T15:44:28.724Z,22.07
2018-02-07T15:47:00.714Z,25.10
2018-02-07T15:49:32.877Z,22.37
2018-02-07T15:52:04.149Z,21.53
2018-02-07T15:54:35.234Z,22.30
2018-02-07T15:57:07.099Z,19.90
2018-02-07T15:59:39.037Z,18.37
2018-02-07T16:02:11.132Z,19.30
2018-02-07T16:04:42.851Z,23.73
2018-02-07T16:07:14.028Z,23.03
2018-02-07T16:09:44.978Z,24.37
2018-02-07T16:12:16.512Z,20.63
2018-02-07T16:14:48.565Z,15.77
2018-02-07T16:17:19.341Z,19.43
2018-02-07T16:19:50.175Z,18.23
2018-02-07T16:22:21.067Z,19.43
2018-02-07T16:24:51.924Z,18.70
2018-02-07T16:27:24.374Z,19.83
2018-02-07T16:29:56.054Z,23.87
2018-02-07T16:32:28.531Z,22.13
2018-02-07T16:35:01.843Z,24.93
2018-02-07T16:37:33.037Z,26.33
2018-02-07T16:40:04.086Z,21.43
2018-02-07T16:42:34.934Z,24.27
2018-02-07T16:45:06.998Z,22.27
2018-02-07T16:47:38.083Z,23.83
2018-02-07T16:50:08.922Z,20.97
2018-02-07T16:52:40.070Z,23.43
2018-02-07T16:55:11.302Z,25.10
2018-02-07T16:57:42.238Z,26.40
2018-02-07T17:00:13.260Z,21.27
2018-02-07T17:02:45.591Z,28.13
2018-02-07T17:05:16.559Z,25.97
2018-02-07T17:07:47.509Z,29.43
2018-02-07T17:10:19.293Z,23.27
2018-02-07T17:12:50.274Z,22.03
2018-02-07T17:15:21.398Z,28.77
2018-02-07T17:17:52.346Z,26.60
2018-02-07T17:20:23.318Z,24.53
2018-02-07T17:22:53.977Z,21.30
2018-02-07T17:25:26.166Z,20.77
2018-02-07T17:27:56.981Z,23.50
2018-02-07T17:30:27.993Z,25.83
2018-02-07T17:32:58.810Z,22.60
2018-02-07T17:35:29.897Z,26.10
2018-02-07T17:38:00.667Z,22.50
2018-02-07T17:40:31.529Z,26.80
2018-02-07T17:43:02.526Z,24.53
2018-02-07T17:45:33.546Z,30.43
2018-02-07T17:48:05.196Z,29.33
2018-02-07T17:50:37.151Z,28.80
2018-02-07T17:53:08.887Z,28.23
2018-02-07T17:55:39.814Z,23.70
2018-02-07T17:58:10.525Z,26.20
2018-02-07T18:00:41.502Z,25.73
2018-02-07T18:03:12.477Z,37.70
2018-02-07T18:05:43.378Z,24.10
2018-02-07T18:08:14.131Z,26.63
2018-02-07T18:10:45.456Z,28.70
2018-02-07T18:13:15.998Z,24.57
2018-02-07T18:15:47.678Z,27.80
2018-02-07T18:18:19.394Z,34.17
2018-02-07T18:20:50.610Z,26.83
2018-02-07T18:23:21.426Z,28.53
2018-02-07T18:25:53.037Z,32.53
2018-02-07T18:28:23.798Z,31.50
2018-02-07T18:30:55.534Z,33.63
2018-02-07T18:33:26.766Z,31.20
2018-02-07T18:35:57.527Z,33.10
2018-02-07T18:38:29.066Z,29.40
2018-02-07T18:41:00.012Z,26.53
2018-02-07T18:43:31.558Z,28.57
2018-02-07T18:46:02.482Z,26.00
2018-02-07T18:48:33.422Z,30.47
2018-02-07T18:51:04.283Z,31.43
2018-02-07T18:53:36.037Z,29.70
2018-02-07T18:56:07.926Z,27.30
2018-02-07T18:58:38.845Z,26.40
2018-02-07T19:01:10.466Z,31.13
2018-02-07T19:03:41.330Z,36.80
2018-02-07T19:06:12.762Z,32.13
2018-02-07T19:08:43.706Z,32.40
2018-02-07T19:11:15.454Z,28.30
2018-02-07T19:13:46.413Z,31.90
2018-02-07T19:16:18.218Z,28.70
2018-02-07T19:18:49.125Z,27.63
2018-02-07T19:21:20.734Z,29.53
2018-02-07T19:23:51.614Z,28.60
2018-02-07T19:26:23.208Z,38.17
2018-02-07T19:28:54.062Z,23.93
2018-02-07T19:31:24.982Z,33.50
2018-02-07T19:33:55.862Z,24.20
2018-02-07T19:36:27.574Z,32.93
2018-02-07T19:38:58.581Z,33.77
2018-02-07T19:41:30.122Z,33.73
2018-02-07T19:44:01.791Z,28.10
2018-02-07T19:46:34.130Z,31.53
2018-02-07T19:49:04.969Z,33.57
2018-02-07T19:51:35.710Z,30.13
2018-02-07T19:54:09.002Z,34.80
2018-02-07T19:56:40.498Z,27.87
2018-02-07T19:59:11.514Z,30.27
2018-02-07T20:01:43.034Z,29.60
2018-02-07T20:04:14.026Z,27.83
2018-02-07T20:06:44.605Z,30.87
2018-02-07T20:09:15.575Z,27.00
2018-02-07T20:11:47.327Z,30.33
2018-02-07T20:14:19.063Z,30.23
2018-02-07T20:16:50.336Z,26.67
2018-02-07T20:19:21.790Z,34.67
2018-02-07T20:21:53.347Z,35.90
2018-02-07T20:24:24.955Z,32.53
2018-02-07T20:26:55.746Z,26.23
2018-02-07T20:29:26.199Z,27.27
2018-02-07T20:31:57.013Z,28.73
2018-02-07T20:34:28.029Z,27.53
2018-02-07T20:36:59.527Z,31.50
2018-02-07T20:39:30.526Z,33.03
2018-02-07T20:42:02.154Z,28.20
2018-02-07T20:44:33.130Z,28.07
2018-02-07T20:47:04.522Z,29.40
2018-02-07T20:49:35.383Z,28.60
2018-02-07T20:52:06.094Z,32.53
2018-02-07T20:54:36.890Z,36.77
2018-02-07T20:57:07.726Z,28.10
2018-02-07T20:59:38.639Z,38.43
2018-02-07T21:02:10.302Z,28.43
2018-02-07T21:04:42.074Z,32.73
2018-02-07T21:07:13.817Z,31.97
2018-02-07T21:09:45.613Z,31.07
2018-02-07T21:12:17.996Z,31.40
2018-02-07T21:14:48.917Z,33.47
2018-02-07T21:17:19.490Z,33.80
2018-02-07T21:19:50.589Z,34.67
2018-02-07T21:22:22.419Z,28.33
2018-02-07T21:24:54.142Z,26.63
2018-02-07T21:27:24.997Z,35.47
2018-02-07T21:29:55.846Z,31.70
2018-02-07T21:32:27.569Z,27.40
2018-02-07T21:34:58.511Z,28.73
2018-02-07T21:37:29.194Z,28.47
2018-02-07T21:40:00.190Z,38.00
2018-02-07T21:42:32.022Z,32.70
2018-02-07T21:45:02.981Z,30.33
2018-02-07T21:47:33.810Z,25.37
2018-02-07T21:50:04.783Z,29.03
2018-02-07T21:52:35.593Z,32.67
2018-02-07T21:55:06.558Z,25.40
2018-02-07T21:57:38.213Z,30.53
2018-02-07T22:00:10.884Z,30.13
2018-02-07T22:02:42.358Z,32.03
2018-02-07T22:05:14.005Z,31.50
2018-02-07T22:07:45.746Z,28.80
2018-02-07T22:10:17.554Z,28.47
2018-02-07T22:12:48.561Z,29.60
2018-02-07T22:15:20.518Z,24.70
2018-02-07T22:17:52.202Z,30.67
2018-02-07T22:20:22.945Z,29.90
2018-02-07T22:22:53.842Z,36.33
2018-02-07T22:25:25.097Z,24.70
2018-02-07T22:27:57.174Z,32.77
2018-02-07T22:30:27.977Z,28.63
2018-02-07T22:32:59.734Z,36.67
2018-02-07T22:35:31.068Z,32.50
2018-02-07T22:38:02.362Z,28.33
2018-02-07T22:40:34.023Z,35.30
2018-02-07T22:43:05.469Z,34.07
2018-02-07T22:45:36.909Z,30.60
2018-02-07T22:48:08.506Z,38.97
2018-02-07T22:50:39.604Z,30.07
2018-02-07T22:53:11.782Z,33.23
2018-02-07T22:55:43.437Z,32.03
2018-02-07T22:58:15.063Z,31.37
2018-02-07T23:00:45.822Z,27.20
2018-02-07T23:03:17.559Z,27.00
2018-02-07T23:05:48.501Z,31.37
2018-02-07T23:08:19.434Z,28.20
2018-02-07T23:10:51.098Z,32.43
2018-02-07T23:13:22.029Z,36.90
2018-02-07T23:15:52.702Z,31.83
2018-02-07T23:18:24.470Z,29.20
2018-02-07T23:20:55.962Z,28.33
2018-02-07T23:23:27.852Z,26.40
2018-02-07T23:25:59.718Z,26.27
2018-02-07T23:28:32.626Z,29.87
2018-02-07T23:31:03.693Z,30.87
2018-02-07T23:33:34.626Z,28.70
2018-02-07T23:36:05.642Z,28.30
2018-02-07T23:38:36.429Z,29.60
2018-02-07T23:41:07.301Z,28.93
2018-02-07T23:43:38.843Z,22.30
2018-02-07T23:46:10.471Z,29.20
2018-02-07T23:48:41.815Z,31.93
2018-02-07T23:51:12.785Z,26.07
2018-02-07T23:53:44.359Z,34.27
2018-02-07T23:56:15.182Z,32.07
2018-02-07T23:58:46.853Z,33.87
